Terminal Aerodrome Forecast
Issued by NWS

Home | Current Version | Previous Version | Text Only | Print | Product List | Glossary On
Versions: 1 2 3 4 5 6 7 8 9 10 11 12 13 14 15 16 17
000
FTUS41 KBTV 301723
TAFSLK
TAF
KSLK 301723Z 3018/3118 24011G23KT P6SM SCT035 BKN050
     FM310300 25007KT P6SM SCT250
     FM310600 VRB03KT 3SM BR SCT250
     FM310900 24010G15KT P6SM BKN250=

USA.gov is the U.S. government's official web portal to all federal, state and local government web resources and services.